Time;durP1;ratioP1;P1;durP2;ratioP2;P2;SDS_P1;SDS_P2;PMS_P1;PMS_P2;Temp;Humidity;BMP_temperature;BMP_pressure;BME280_temperature;BME280_humidity;BME280_pressure;Samples;Min_cycle;Max_cycle;Signal;HPM_P1;HPM_P2
2023/03/22 00:00:55;;;;;;;12.48;6.35;;;10.20;99.90;;;;;;5053827;28;20040;-73
2023/03/22 00:03:22;;;;;;;15.73;6.40;;;10.10;99.90;;;;;;5054070;28;20052;-73
2023/03/22 00:05:48;;;;;;;11.48;6.35;;;10.10;99.90;;;;;;5053685;28;20091;-73
2023/03/22 00:08:14;;;;;;;11.57;6.30;;;10.10;99.90;;;;;;5053711;28;20037;-74
2023/03/22 00:10:40;;;;;;;14.27;6.38;;;10.00;99.90;;;;;;5053662;28;20072;-74
2023/03/22 00:13:14;;;;;;;15.20;6.22;;;10.00;99.90;;;;;;5053643;28;20036;-73
2023/03/22 00:15:43;;;;;;;;;;;10.00;99.90;;;;;;5054256;28;20431;-73
2023/03/22 00:18:11;;;;;;;10.25;6.40;;;9.90;99.90;;;;;;5053501;28;20335;-73
2023/03/22 00:20:38;;;;;;;13.80;6.00;;;9.90;99.90;;;;;;5053383;28;20175;-73
2023/03/22 00:23:05;;;;;;;17.02;6.03;;;9.80;99.90;;;;;;5053435;28;20044;-73
2023/03/22 00:25:31;;;;;;;12.68;5.18;;;9.80;99.90;;;;;;5053315;28;20041;-73
2023/03/22 00:27:56;;;;;;;10.68;5.30;;;9.80;99.90;;;;;;5053347;28;20040;-73
2023/03/22 00:30:22;;;;;;;10.05;5.22;;;9.80;99.90;;;;;;5053545;28;20103;-73
2023/03/22 00:32:47;;;;;;;12.07;5.40;;;9.80;99.90;;;;;;5053493;28;20485;-73
2023/03/22 00:35:13;;;;;;;12.60;5.38;;;9.80;99.90;;;;;;5053128;28;20545;-73
2023/03/22 00:37:39;;;;;;;14.02;6.18;;;9.80;99.90;;;;;;5053396;28;20037;-73
2023/03/22 00:40:11;;;;;;;13.48;6.30;;;9.70;99.90;;;;;;5053310;28;20571;-73
2023/03/22 00:42:38;;;;;;;13.90;5.57;;;9.70;99.90;;;;;;5052960;28;20041;-73
2023/03/22 00:45:06;;;;;;;11.80;4.85;;;9.60;99.90;;;;;;5053144;28;20379;-73
2023/03/22 00:47:31;;;;;;;14.60;5.55;;;9.60;99.90;;;;;;5052183;28;20033;-74
2023/03/22 00:49:57;;;;;;;11.60;5.03;;;9.60;99.90;;;;;;5036338;28;20115;-74
2023/03/22 00:52:23;;;;;;;13.27;4.97;;;9.60;99.90;;;;;;5052853;28;20123;-74
2023/03/22 00:54:48;;;;;;;12.35;4.60;;;9.60;99.90;;;;;;5052627;28;20059;-73
2023/03/22 00:57:14;;;;;;;10.65;4.50;;;9.60;99.90;;;;;;5052749;28;20094;-73
2023/03/22 00:59:41;;;;;;;13.32;4.20;;;9.60;99.90;;;;;;5052619;28;20045;-73
2023/03/22 01:02:08;;;;;;;12.88;3.97;;;9.60;99.90;;;;;;5052526;28;20049;-73
2023/03/22 01:04:35;;;;;;;14.60;4.63;;;9.60;99.90;;;;;;5052482;28;20452;-73
2023/03/22 01:07:04;;;;;;;11.45;3.67;;;9.60;99.90;;;;;;5052535;28;20078;-73
2023/03/22 01:09:32;;;;;;;15.88;4.75;;;9.60;99.90;;;;;;5052452;28;20044;-73
2023/03/22 01:11:59;;;;;;;12.68;4.30;;;9.50;99.90;;;;;;5052407;28;20044;-73
2023/03/22 01:14:25;;;;;;;11.68;3.88;;;9.50;99.90;;;;;;5052315;28;20410;-73
2023/03/22 01:16:56;;;;;;;14.02;3.90;;;9.50;99.90;;;;;;5052326;28;20045;-73
2023/03/22 01:19:22;;;;;;;12.57;4.25;;;9.50;99.90;;;;;;5052601;28;20049;-73
2023/03/22 01:21:48;;;;;;;11.95;3.72;;;9.50;99.90;;;;;;5052175;28;20048;-74
2023/03/22 01:24:13;;;;;;;12.30;3.70;;;9.50;99.90;;;;;;5052196;28;20044;-73
2023/03/22 01:26:39;;;;;;;8.63;3.25;;;9.50;99.90;;;;;;5052187;28;20049;-73
2023/03/22 01:29:05;;;;;;;12.00;3.30;;;9.50;99.90;;;;;;5052144;28;20102;-73
2023/03/22 01:31:30;;;;;;;11.38;3.30;;;9.50;99.90;;;;;;5068803;28;20072;-73
2023/03/22 01:33:56;;;;;;;10.90;3.03;;;9.50;99.90;;;;;;5052278;28;20167;-74
2023/03/22 01:36:21;;;;;;;10.50;3.58;;;9.50;99.90;;;;;;5052024;28;20529;-74
2023/03/22 01:38:47;;;;;;;9.75;2.90;;;9.50;99.90;;;;;;5052251;28;20102;-74
2023/03/22 01:41:14;;;;;;;10.38;3.53;;;9.50;99.90;;;;;;5051946;28;20124;-74
2023/03/22 01:43:40;;;;;;;9.30;2.88;;;9.50;99.90;;;;;;5051885;28;20045;-73
2023/03/22 01:46:06;;;;;;;12.70;3.25;;;9.50;99.90;;;;;;5052146;28;20040;-73
2023/03/22 01:48:44;;;;;;;12.48;3.55;;;9.50;99.90;;;;;;5052148;28;20120;-73
2023/03/22 01:51:21;;;;;;;11.90;2.65;;;9.50;99.90;;;;;;5035526;28;20045;-73
2023/03/22 01:54:09;;;;;;;11.82;2.60;;;9.50;99.90;;;;;;5051780;28;20052;-73
2023/03/22 01:56:38;;;;;;;8.30;2.30;;;9.40;99.90;;;;;;5051705;28;20059;-73
2023/03/22 01:59:06;;;;;;;12.40;3.40;;;9.50;99.90;;;;;;5052733;28;20094;-73
2023/03/22 02:01:33;;;;;;;12.15;2.55;;;9.50;99.90;;;;;;5051628;28;20051;-73
2023/03/22 02:04:16;;;;;;;11.88;2.55;;;9.40;99.90;;;;;;5051636;28;20501;-73
2023/03/22 02:06:43;;;;;;;11.68;2.53;;;9.40;99.90;;;;;;5051746;28;20041;-73
2023/03/22 02:09:11;;;;;;;11.35;2.20;;;9.50;99.90;;;;;;5051635;28;20378;-73
2023/03/22 02:11:40;;;;;;;10.10;2.45;;;9.50;99.90;;;;;;5051902;28;20044;-73
2023/03/22 02:14:28;;;;;;;10.48;2.40;;;9.50;99.90;;;;;;5051563;28;20098;-73
2023/03/22 02:17:10;;;;;;;8.57;2.40;;;9.50;99.90;;;;;;5051569;28;20041;-73
2023/03/22 02:20:09;;;;;;;8.60;2.30;;;9.50;99.90;;;;;;5051621;28;20391;-73
2023/03/22 02:22:48;;;;;;;9.02;2.15;;;9.50;99.90;;;;;;5051461;28;20084;-73
2023/03/22 02:25:19;;;;;;;9.82;2.38;;;9.40;99.90;;;;;;5035012;28;20563;-73
2023/03/22 02:28:06;;;;;;;12.07;2.63;;;9.40;99.90;;;;;;5051516;28;20037;-73
2023/03/22 02:30:54;;;;;;;8.40;2.42;;;9.50;99.90;;;;;;5035168;28;20047;-73
2023/03/22 02:33:50;;;;;;;11.15;2.22;;;9.50;99.90;;;;;;5051704;28;20103;-73
2023/03/22 02:36:34;;;;;;;8.35;2.20;;;9.50;99.90;;;;;;5051438;28;20045;-73
2023/03/22 02:39:15;;;;;;;13.35;2.70;;;9.50;99.90;;;;;;5051437;28;20517;-73
2023/03/22 02:41:55;;;;;;;9.05;2.10;;;9.50;99.90;;;;;;5051230;28;20041;-73
2023/03/22 02:44:25;;;;;;;13.30;2.50;;;9.50;99.90;;;;;;5051561;28;20425;-73
2023/03/22 02:47:06;;;;;;;12.73;2.80;;;9.50;99.90;;;;;;5051541;28;20068;-73
2023/03/22 02:49:46;;;;;;;8.60;2.45;;;9.50;99.90;;;;;;5051316;28;20079;-74
2023/03/22 02:52:23;;;;;;;16.17;3.00;;;9.50;99.90;;;;;;5051328;28;20044;-74
2023/03/22 02:55:04;;;;;;;13.63;2.45;;;9.50;99.90;;;;;;5051100;28;20128;-73
2023/03/22 02:57:58;;;;;;;8.68;2.80;;;9.50;99.90;;;;;;5051466;28;20051;-73
2023/03/22 03:00:26;;;;;;;11.43;3.10;;;9.50;99.90;;;;;;5036654;28;20055;-73
2023/03/22 03:02:56;;;;;;;11.00;2.47;;;9.50;99.90;;;;;;5051040;28;20502;-73
2023/03/22 03:05:24;;;;;;;11.45;2.85;;;9.50;99.90;;;;;;5051049;28;20516;-73
2023/03/22 03:07:56;;;;;;;10.00;3.50;;;9.50;99.90;;;;;;5051167;28;20112;-73
2023/03/22 03:10:22;;;;;;;17.67;3.97;;;9.50;99.90;;;;;;5051267;28;20037;-73
2023/03/22 03:12:48;;;;;;;10.02;3.20;;;9.50;99.90;;;;;;5054991;28;20075;-73
2023/03/22 03:15:19;;;;;;;14.25;3.42;;;9.50;99.90;;;;;;5054617;28;20490;-73
2023/03/22 03:17:56;;;;;;;7.10;2.60;;;9.50;99.90;;;;;;5054632;28;20073;-73
2023/03/22 03:20:51;;;;;;;10.52;3.00;;;9.50;99.90;;;;;;5054659;28;20043;-73
2023/03/22 03:23:27;;;;;;;10.25;3.33;;;9.50;99.90;;;;;;5054557;28;20386;-73
2023/03/22 03:26:17;;;;;;;15.77;3.28;;;9.50;99.90;;;;;;5054458;28;20517;-73
2023/03/22 03:28:52;;;;;;;17.35;3.85;;;9.50;99.90;;;;;;5054473;28;20037;-73
2023/03/22 03:31:37;;;;;;;11.43;3.58;;;9.50;99.90;;;;;;5037756;28;20391;-73
2023/03/22 03:34:17;;;;;;;13.10;3.03;;;9.50;99.90;;;;;;5054305;28;20099;-73
2023/03/22 03:36:58;;;;;;;11.30;3.10;;;9.50;99.90;;;;;;5054355;28;20041;-73
2023/03/22 03:39:29;;;;;;;11.02;3.30;;;9.50;99.90;;;;;;5054284;28;20037;-73
2023/03/22 03:41:56;;;;;;;8.27;2.70;;;9.50;99.90;;;;;;5054177;28;20485;-73
2023/03/22 03:44:22;;;;;;;10.68;3.05;;;9.40;99.90;;;;;;5054094;28;20036;-73
2023/03/22 03:46:51;;;;;;;12.60;2.85;;;9.50;99.90;;;;;;5055337;28;20397;-73
2023/03/22 03:49:18;;;;;;;9.93;3.10;;;9.40;99.90;;;;;;5054305;28;20072;-73
2023/03/22 03:51:51;;;;;;;9.10;2.70;;;9.50;99.90;;;;;;5054263;28;20427;-73
2023/03/22 03:54:17;;;;;;;13.57;3.50;;;9.50;99.90;;;;;;5054011;28;20080;-73
2023/03/22 03:56:43;;;;;;;12.65;3.10;;;9.50;99.90;;;;;;5053885;28;20048;-73
2023/03/22 03:59:09;;;;;;;9.18;2.60;;;9.50;99.90;;;;;;5053880;28;20049;-73
2023/03/22 04:01:35;;;;;;;9.55;2.80;;;9.50;99.90;;;;;;5053987;28;20045;-73
2023/03/22 04:04:00;;;;;;;12.40;3.10;;;9.50;99.90;;;;;;5053772;28;20474;-73
2023/03/22 04:06:26;;;;;;;12.05;2.88;;;9.50;99.90;;;;;;5053766;28;20094;-73
2023/03/22 04:08:52;;;;;;;11.95;2.83;;;9.50;99.90;;;;;;5038188;28;20119;-74
2023/03/22 04:11:19;;;;;;;9.68;3.20;;;9.50;99.90;;;;;;5053626;28;20140;-73
2023/03/22 04:13:44;;;;;;;7.32;2.67;;;9.50;99.90;;;;;;5037261;28;20398;-73
2023/03/22 04:16:10;;;;;;;10.73;3.55;;;9.50;99.90;;;;;;5053892;28;20497;-73
2023/03/22 04:18:36;;;;;;;10.65;3.60;;;9.60;99.90;;;;;;5053557;28;20390;-73
2023/03/22 04:21:04;;;;;;;9.40;4.25;;;9.50;99.90;;;;;;5053629;28;20051;-74
2023/03/22 04:23:31;;;;;;;11.63;4.30;;;9.60;99.90;;;;;;5054477;28;20437;-74
2023/03/22 04:25:58;;;;;;;12.75;4.95;;;9.60;99.90;;;;;;5053591;28;20052;-73
2023/03/22 04:28:25;;;;;;;11.45;5.40;;;9.60;99.90;;;;;;5053605;28;20102;-73
2023/03/22 04:30:51;;;;;;;12.75;5.28;;;9.60;99.90;;;;;;5053290;28;20037;-73
2023/03/22 04:33:18;;;;;;;13.35;5.28;;;9.60;99.90;;;;;;5053204;28;20405;-74
2023/03/22 04:35:45;;;;;;;11.20;5.20;;;9.60;99.90;;;;;;5053116;28;20036;-73
2023/03/22 04:38:11;;;;;;;13.15;6.75;;;9.60;99.90;;;;;;5053122;28;20450;-73
2023/03/22 04:40:37;;;;;;;13.45;6.57;;;9.70;99.90;;;;;;5053091;28;20120;-73
2023/03/22 04:43:04;;;;;;;17.13;7.47;;;9.60;99.90;;;;;;5052982;28;20123;-73
2023/03/22 04:45:31;;;;;;;12.85;7.00;;;9.70;99.90;;;;;;5069615;28;20036;-73
2023/03/22 04:47:57;;;;;;;13.73;7.47;;;9.80;99.90;;;;;;5052974;28;20045;-73
2023/03/22 04:50:23;;;;;;;13.02;7.82;;;9.70;99.90;;;;;;5052935;28;20485;-73
2023/03/22 04:52:48;;;;;;;15.93;8.20;;;9.70;99.90;;;;;;5053151;28;20044;-73
2023/03/22 04:55:14;;;;;;;12.88;8.13;;;9.80;99.90;;;;;;5052928;28;20497;-73
2023/03/22 04:57:40;;;;;;;16.75;9.80;;;9.70;99.90;;;;;;5052834;28;20493;-73
2023/03/22 05:00:09;;;;;;;15.93;9.68;;;9.80;99.90;;;;;;5052989;28;20037;-73
2023/03/22 05:02:38;;;;;;;15.60;9.75;;;9.80;99.90;;;;;;5052631;28;20040;-73
2023/03/22 05:05:04;;;;;;;15.52;9.63;;;9.80;99.90;;;;;;5052615;28;20545;-73
2023/03/22 05:07:29;;;;;;;17.40;10.05;;;9.80;99.90;;;;;;5052608;28;20044;-73
2023/03/22 05:09:55;;;;;;;19.38;10.68;;;9.80;99.90;;;;;;5035993;28;20033;-73
2023/03/22 05:12:21;;;;;;;17.80;10.10;;;9.90;99.90;;;;;;5052767;28;20045;-73
2023/03/22 05:14:46;;;;;;;16.65;10.98;;;9.90;99.90;;;;;;5052420;28;20409;-72
2023/03/22 05:17:12;;;;;;;18.45;10.50;;;9.80;99.90;;;;;;5052690;28;20037;-73
2023/03/22 05:19:37;;;;;;;21.33;10.98;;;9.90;99.90;;;;;;5052403;28;20048;-73
2023/03/22 05:22:03;;;;;;;19.35;10.63;;;9.80;99.90;;;;;;5053480;28;20049;-73
2023/03/22 05:24:29;;;;;;;18.23;11.15;;;9.80;99.90;;;;;;5052210;28;20041;-73
2023/03/22 05:26:55;;;;;;;19.55;10.93;;;9.90;99.90;;;;;;5052263;28;20076;-73
2023/03/22 05:29:21;;;;;;;17.83;10.93;;;9.80;99.90;;;;;;5052223;28;20060;-73
2023/03/22 05:31:47;;;;;;;18.35;11.10;;;9.80;99.90;;;;;;5035534;28;20087;-73
2023/03/22 05:34:13;;;;;;;18.27;11.57;;;9.80;99.90;;;;;;5051524;28;20086;-73
2023/03/22 05:36:39;;;;;;;15.73;11.13;;;9.80;99.90;;;;;;5052161;28;20094;-73
2023/03/22 05:39:04;;;;;;;20.27;12.32;;;9.80;99.90;;;;;;5052145;28;20127;-73
2023/03/22 05:41:32;;;;;;;20.17;11.23;;;9.80;99.90;;;;;;5051992;28;20175;-73
2023/03/22 05:43:58;;;;;;;18.30;11.43;;;9.80;99.90;;;;;;5051940;28;20098;-73
2023/03/22 05:46:24;;;;;;;21.20;11.55;;;9.80;99.90;;;;;;5052239;28;20060;-73
2023/03/22 05:48:50;;;;;;;21.02;11.38;;;9.80;99.90;;;;;;5052258;28;20493;-73
2023/03/22 05:51:18;;;;;;;15.27;10.45;;;9.80;99.90;;;;;;5051946;28;20513;-73
2023/03/22 05:53:47;;;;;;;16.35;11.02;;;9.80;99.90;;;;;;5068551;28;20126;-73
2023/03/22 05:56:14;;;;;;;17.83;10.65;;;9.80;99.90;;;;;;5068607;28;20041;-74
2023/03/22 05:58:40;;;;;;;18.58;11.95;;;9.80;99.90;;;;;;5052115;28;20132;-74
2023/03/22 06:01:10;;;;;;;19.45;11.50;;;9.80;99.90;;;;;;5052004;28;20048;-74
2023/03/22 06:03:36;;;;;;;19.23;11.50;;;9.80;99.90;;;;;;5051755;28;20041;-73
2023/03/22 06:06:05;;;;;;;14.32;10.68;;;9.80;99.90;;;;;;5068486;28;20071;-73
2023/03/22 06:08:34;;;;;;;18.00;11.32;;;9.80;99.90;;;;;;5035163;28;20078;-74
2023/03/22 06:11:00;;;;;;;16.92;11.15;;;9.80;99.90;;;;;;5068626;28;20409;-72
2023/03/22 06:13:26;;;;;;;22.17;12.48;;;9.80;99.90;;;;;;5051667;28;20521;-73
2023/03/22 06:15:51;;;;;;;16.85;10.20;;;9.80;99.90;;;;;;5051579;28;20043;-73
2023/03/22 06:18:17;;;;;;;16.50;10.98;;;9.80;99.90;;;;;;5068300;28;20040;-73
2023/03/22 06:20:42;;;;;;;19.42;11.32;;;9.80;99.90;;;;;;5051629;28;20409;-73
2023/03/22 06:23:08;;;;;;;18.77;11.20;;;9.80;99.90;;;;;;5051531;28;20045;-74
2023/03/22 06:25:34;;;;;;;17.25;10.63;;;9.90;99.90;;;;;;5051730;28;20123;-73
2023/03/22 06:28:00;;;;;;;17.67;11.10;;;9.90;99.90;;;;;;5034981;28;20116;-73
2023/03/22 06:30:26;;;;;;;14.35;10.93;;;9.90;99.90;;;;;;5034932;28;20091;-73
2023/03/22 06:32:52;;;;;;;16.10;10.50;;;10.00;99.90;;;;;;5051515;28;20044;-73
2023/03/22 06:35:17;;;;;;;17.98;11.15;;;10.00;99.90;;;;;;5051405;28;20044;-73
2023/03/22 06:37:43;;;;;;;18.42;10.85;;;10.00;99.90;;;;;;5034837;28;20037;-73
2023/03/22 06:40:09;;;;;;;17.33;11.63;;;10.00;99.90;;;;;;5051603;28;20043;-73
2023/03/22 06:42:35;;;;;;;17.15;10.00;;;10.00;99.90;;;;;;5051263;28;20041;-73
2023/03/22 06:45:01;;;;;;;19.15;10.63;;;10.10;99.90;;;;;;5051543;28;20037;-73
2023/03/22 06:47:27;;;;;;;17.48;9.63;;;10.10;99.90;;;;;;5071780;28;20583;-73
2023/03/22 06:49:53;;;;;;;15.82;10.20;;;10.10;99.90;;;;;;5055405;28;20405;-73
2023/03/22 06:52:19;;;;;;;17.67;9.77;;;10.10;99.90;;;;;;5055242;28;20401;-73
2023/03/22 06:54:44;;;;;;;15.18;9.85;;;10.20;99.90;;;;;;5054972;28;20047;-73
2023/03/22 06:57:10;;;;;;;15.73;9.65;;;10.20;99.90;;;;;;5055080;28;20132;-73
2023/03/22 06:59:36;;;;;;;15.48;9.10;;;10.20;99.90;;;;;;5055000;28;20128;-73
2023/03/22 07:02:02;;;;;;;15.80;9.60;;;10.30;99.90;;;;;;5054884;28;20045;-74
2023/03/22 07:04:28;;;;;;;15.85;9.57;;;10.30;99.90;;;;;;5038519;28;20102;-73
2023/03/22 07:06:53;;;;;;;18.73;9.35;;;10.30;99.90;;;;;;5038225;28;20498;-73
2023/03/22 07:09:19;;;;;;;16.42;9.50;;;10.30;99.90;;;;;;5054827;28;20033;-73
2023/03/22 07:11:45;;;;;;;20.38;9.20;;;10.30;99.90;;;;;;5054837;28;20076;-73
2023/03/22 07:14:10;;;;;;;15.05;8.52;;;10.40;99.90;;;;;;5054750;28;20170;-73
2023/03/22 07:16:36;;;;;;;13.82;8.18;;;10.40;99.90;;;;;;5054722;28;20072;-73
2023/03/22 07:19:02;;;;;;;16.95;8.43;;;10.50;99.90;;;;;;5054949;28;20051;-73
2023/03/22 07:21:28;;;;;;;15.30;8.77;;;10.50;99.90;;;;;;5054609;28;20519;-73
2023/03/22 07:23:54;;;;;;;15.02;7.70;;;10.50;99.90;;;;;;5054792;28;20115;-74
2023/03/22 07:26:19;;;;;;;13.32;8.10;;;10.50;99.90;;;;;;5054579;28;20049;-74
2023/03/22 07:28:45;;;;;;;15.48;8.13;;;10.50;99.90;;;;;;5054545;28;20075;-74
2023/03/22 07:31:14;;;;;;;16.48;7.97;;;10.50;99.90;;;;;;5054494;28;20041;-74
2023/03/22 07:33:40;;;;;;;11.63;7.50;;;10.60;99.90;;;;;;5054577;28;20055;-73
2023/03/22 07:36:08;;;;;;;16.02;8.02;;;10.70;99.90;;;;;;5054361;28;20500;-74
2023/03/22 07:38:34;;;;;;;13.75;7.55;;;10.70;99.90;;;;;;5054471;28;20029;-74
2023/03/22 07:40:59;;;;;;;14.75;6.82;;;10.60;99.90;;;;;;5070899;28;20086;-73
2023/03/22 07:43:25;;;;;;;15.15;7.55;;;10.60;99.90;;;;;;5054553;28;20045;-74
2023/03/22 07:45:51;;;;;;;14.23;6.07;;;10.60;99.90;;;;;;5054408;28;20402;-73
2023/03/22 07:48:18;;;;;;;11.85;5.90;;;10.60;99.90;;;;;;5054460;28;20077;-73
2023/03/22 07:50:44;;;;;;;15.85;6.40;;;10.70;99.90;;;;;;5054114;28;20122;-74
2023/03/22 07:53:10;;;;;;;13.25;5.43;;;10.70;99.90;;;;;;5054336;28;20091;-73
2023/03/22 07:55:36;;;;;;;13.07;6.50;;;10.70;99.90;;;;;;5054061;28;20041;-73
2023/03/22 07:58:02;;;;;;;12.23;5.28;;;10.70;99.90;;;;;;5053516;28;20045;-74
2023/03/22 08:00:28;;;;;;;11.38;5.25;;;10.60;99.90;;;;;;5037318;28;20067;-74
2023/03/22 08:02:54;;;;;;;10.90;5.57;;;10.60;99.90;;;;;;5053918;28;20041;-73
2023/03/22 08:05:21;;;;;;;9.27;4.68;;;10.60;99.90;;;;;;5054064;28;20123;-73
2023/03/22 08:07:51;;;;;;;12.20;5.20;;;10.60;99.90;;;;;;5053933;28;20116;-74
2023/03/22 08:10:17;;;;;;;13.02;5.20;;;10.70;99.90;;;;;;5053983;28;20091;-73
2023/03/22 08:12:43;;;;;;;11.48;4.57;;;10.70;99.90;;;;;;5053909;28;20045;-74
2023/03/22 08:15:09;;;;;;;12.23;4.88;;;10.80;99.90;;;;;;5053619;28;20051;-74
2023/03/22 08:17:35;;;;;;;12.95;4.90;;;10.80;99.90;;;;;;5053624;28;20076;-74
2023/03/22 08:20:06;;;;;;;13.75;4.78;;;11.00;99.90;;;;;;5053541;28;20072;-74
2023/03/22 08:22:31;;;;;;;15.35;5.68;;;11.00;99.90;;;;;;5053734;28;20405;-74
2023/03/22 08:24:57;;;;;;;11.82;4.30;;;10.90;99.90;;;;;;5053413;28;20033;-73
2023/03/22 08:27:22;;;;;;;9.68;3.90;;;10.90;99.90;;;;;;5053448;28;20045;-73
2023/03/22 08:29:48;;;;;;;11.43;5.00;;;10.80;99.90;;;;;;5053328;28;20051;-73
2023/03/22 08:32:15;;;;;;;12.35;4.20;;;10.80;99.90;;;;;;5053424;28;20120;-73
2023/03/22 08:34:41;;;;;;;11.75;4.03;;;10.80;99.90;;;;;;5053337;28;20052;-73
2023/03/22 08:37:09;;;;;;;10.02;4.38;;;10.80;99.90;;;;;;5053239;28;20045;-73
2023/03/22 08:39:35;;;;;;;9.88;4.30;;;10.80;99.90;;;;;;5053219;28;20041;-73
2023/03/22 08:42:01;;;;;;;10.57;3.67;;;10.80;99.90;;;;;;5053078;28;20045;-73
2023/03/22 08:44:27;;;;;;;12.20;4.05;;;10.80;99.90;;;;;;5036384;28;20037;-73
2023/03/22 08:46:52;;;;;;;12.40;4.50;;;10.80;99.90;;;;;;5054338;28;20041;-73
2023/03/22 08:49:18;;;;;;;14.98;4.07;;;10.90;99.90;;;;;;5053002;28;20045;-73
2023/03/22 08:51:43;;;;;;;9.00;3.25;;;11.00;99.90;;;;;;5052949;28;20045;-73
2023/03/22 08:54:09;;;;;;;9.70;4.00;;;11.00;99.90;;;;;;5053061;28;20114;-73
2023/03/22 08:56:36;;;;;;;12.90;4.18;;;11.10;99.90;;;;;;5053197;28;20037;-73
2023/03/22 08:59:07;;;;;;;14.65;4.55;;;11.10;99.90;;;;;;5052788;28;20129;-73
2023/03/22 09:01:33;;;;;;;10.10;3.75;;;11.20;99.90;;;;;;5052740;28;20041;-73
2023/03/22 09:03:59;;;;;;;12.48;4.05;;;11.20;99.90;;;;;;5052672;28;20091;-73
2023/03/22 09:06:25;;;;;;;16.75;4.57;;;11.20;99.90;;;;;;5053008;28;20136;-73
2023/03/22 09:08:52;;;;;;;11.70;4.13;;;11.20;99.90;;;;;;5051793;28;20072;-73
2023/03/22 09:11:18;;;;;;;11.55;3.85;;;11.20;99.90;;;;;;5035964;28;20049;-73
2023/03/22 09:13:44;;;;;;;12.18;3.20;;;11.30;99.90;;;;;;5036183;28;20083;-73
2023/03/22 09:16:10;;;;;;;12.23;3.80;;;11.30;99.90;;;;;;5052680;28;20072;-73
2023/03/22 09:18:39;;;;;;;13.38;4.38;;;11.30;99.90;;;;;;5052495;28;20520;-73
2023/03/22 09:21:08;;;;;;;15.48;3.97;;;11.30;99.90;;;;;;5052321;28;20124;-73
2023/03/22 09:23:36;;;;;;;9.75;3.30;;;11.30;99.90;;;;;;5052399;28;20047;-73
2023/03/22 09:26:07;;;;;;;14.10;3.70;;;11.30;99.90;;;;;;5052260;28;20044;-73
2023/03/22 09:28:34;;;;;;;13.38;3.70;;;11.30;99.90;;;;;;5035954;28;20051;-73
2023/03/22 09:31:01;;;;;;;13.50;3.47;;;11.30;99.90;;;;;;5052246;28;20099;-73
2023/03/22 09:33:26;;;;;;;12.82;3.55;;;11.30;99.90;;;;;;5052177;28;20072;-73
2023/03/22 09:35:53;;;;;;;11.93;3.75;;;11.30;99.90;;;;;;5052137;28;20072;-73
2023/03/22 09:38:20;;;;;;;10.38;3.40;;;11.30;99.90;;;;;;5052976;28;20044;-73
2023/03/22 09:41:01;;;;;;;11.20;3.17;;;11.30;99.90;;;;;;5052125;28;20090;-73
2023/03/22 09:43:39;;;;;;;9.25;3.00;;;11.30;99.90;;;;;;5036064;28;20072;-73
2023/03/22 09:46:11;;;;;;;10.07;2.58;;;11.30;99.90;;;;;;5035394;28;20095;-73
2023/03/22 09:48:39;;;;;;;11.48;3.42;;;11.30;99.90;;;;;;5052042;28;20119;-73
2023/03/22 09:51:12;;;;;;;13.10;3.58;;;11.30;99.90;;;;;;5052157;28;20494;-73
2023/03/22 09:53:38;;;;;;;;;;;11.20;99.90;;;;;;5052626;28;20041;-73
2023/03/22 09:56:15;;;;;;;11.68;2.90;;;11.20;99.90;;;;;;5052006;28;20357;-73
2023/03/22 09:58:52;;;;;;;13.65;3.13;;;11.10;99.90;;;;;;5052208;28;20061;-73
2023/03/22 10:01:34;;;;;;;12.70;3.20;;;11.10;99.90;;;;;;5052811;28;20095;-73
2023/03/22 10:04:31;;;;;;;11.50;2.45;;;11.10;99.90;;;;;;5051728;28;20467;-73
2023/03/22 10:07:15;;;;;;;12.48;2.85;;;11.10;99.90;;;;;;5069359;28;20032;-73
2023/03/22 10:10:11;;;;;;;10.32;2.55;;;11.10;99.90;;;;;;5051999;28;20087;-73
2023/03/22 10:12:42;;;;;;;10.57;3.15;;;11.10;99.90;;;;;;5047758;28;20060;-73
2023/03/22 10:15:17;;;;;;;12.93;3.08;;;11.00;99.90;;;;;;5051882;28;20041;-73
2023/03/22 10:17:50;;;;;;;8.80;2.75;;;11.00;99.90;;;;;;5051918;28;20132;-73
2023/03/22 10:20:30;;;;;;;7.78;2.60;;;11.00;99.90;;;;;;5053371;28;20038;-73
2023/03/22 10:22:59;;;;;;;9.80;2.80;;;11.00;99.90;;;;;;5055726;28;20048;-73
2023/03/22 10:25:35;;;;;;;9.70;2.80;;;11.00;99.90;;;;;;5055598;28;20123;-73
2023/03/22 10:28:01;;;;;;;9.07;2.47;;;11.00;99.90;;;;;;5055720;28;20091;-73
2023/03/22 10:30:35;;;;;;;8.48;2.45;;;11.00;99.90;;;;;;5055545;28;20470;-73
2023/03/22 10:33:15;;;;;;;10.43;2.72;;;11.00;99.90;;;;;;5056330;28;20056;-72
2023/03/22 10:35:42;;;;;;;9.57;2.92;;;11.00;99.90;;;;;;5055515;28;20041;-73
2023/03/22 10:38:22;;;;;;;11.77;2.97;;;11.00;99.90;;;;;;5055701;28;20056;-73
2023/03/22 10:40:49;;;;;;;11.90;2.85;;;11.00;99.90;;;;;;5055746;28;20036;-73
2023/03/22 10:43:29;;;;;;;10.43;3.72;;;11.00;99.90;;;;;;5055353;28;20048;-72
2023/03/22 10:45:56;;;;;;;10.82;2.85;;;10.90;99.90;;;;;;5055553;28;20124;-73
2023/03/22 10:48:27;;;;;;;9.65;2.92;;;10.90;99.90;;;;;;5055306;28;20072;-73
2023/03/22 10:50:54;;;;;;;9.07;2.80;;;10.80;99.90;;;;;;5038683;28;20044;-73
2023/03/22 10:53:30;;;;;;;10.68;3.08;;;10.80;99.90;;;;;;5055207;28;20082;-73
2023/03/22 10:55:56;;;;;;;10.60;3.22;;;10.80;99.90;;;;;;5055270;28;20051;-73
2023/03/22 10:58:27;;;;;;;9.75;2.95;;;10.80;99.90;;;;;;5055196;28;20044;-73
2023/03/22 11:00:58;;;;;;;11.02;3.40;;;10.80;99.90;;;;;;5038588;28;20037;-73
2023/03/22 11:03:36;;;;;;;11.68;3.40;;;10.70;99.90;;;;;;5055258;28;20041;-73
2023/03/22 11:06:21;;;;;;;9.77;3.00;;;10.70;99.90;;;;;;5055217;28;20080;-73
2023/03/22 11:09:18;;;;;;;12.10;3.10;;;10.70;99.90;;;;;;5055180;28;20039;-73
2023/03/22 11:11:55;;;;;;;12.63;2.90;;;10.60;99.90;;;;;;5018004;28;20084;-73
2023/03/22 11:14:26;;;;;;;8.85;3.15;;;10.60;99.90;;;;;;5017716;28;20037;-73
2023/03/22 11:16:54;;;;;;;11.60;3.08;;;10.60;99.90;;;;;;5017612;28;20148;-73
2023/03/22 11:19:34;;;;;;;9.00;3.03;;;10.60;99.90;;;;;;5017470;28;20053;-73
2023/03/22 11:22:02;;;;;;;9.88;2.95;;;10.60;99.90;;;;;;5018114;28;20057;-73
2023/03/22 11:24:31;;;;;;;9.60;2.88;;;10.50;99.90;;;;;;5017591;28;20037;-73
2023/03/22 11:27:18;;;;;;;7.43;3.05;;;10.50;99.90;;;;;;5017234;28;20041;-73
2023/03/22 11:29:50;;;;;;;8.93;2.88;;;10.50;99.90;;;;;;5017393;28;20041;-73
2023/03/22 11:32:21;;;;;;;15.93;3.50;;;10.50;99.90;;;;;;4999840;28;20049;-72
2023/03/22 11:34:47;;;;;;;9.40;2.67;;;10.50;99.90;;;;;;5017355;28;20084;-73
2023/03/22 11:37:16;;;;;;;12.15;3.05;;;10.50;99.90;;;;;;5033619;28;20629;-73
2023/03/22 11:39:49;;;;;;;9.40;2.70;;;10.60;99.90;;;;;;5017895;28;20402;-73
2023/03/22 11:42:18;;;;;;;9.50;2.55;;;10.60;99.90;;;;;;5017275;28;20158;-73
2023/03/22 11:44:44;;;;;;;8.85;3.05;;;10.60;99.90;;;;;;5017060;28;20132;-72
2023/03/22 11:47:12;;;;;;;12.57;3.10;;;10.60;99.90;;;;;;5017815;28;20053;-72
2023/03/22 11:49:44;;;;;;;7.28;2.65;;;10.60;99.90;;;;;;5052935;28;20485;-73
2023/03/22 11:52:16;;;;;;;8.70;2.50;;;10.60;99.90;;;;;;5054210;28;20048;-72
2023/03/22 11:54:44;;;;;;;9.38;2.22;;;10.60;99.90;;;;;;5053927;28;20041;-72
2023/03/22 11:57:15;;;;;;;9.07;3.10;;;10.60;99.90;;;;;;5054434;28;20115;-73
2023/03/22 12:00:10;;;;;;;9.43;2.40;;;10.60;99.90;;;;;;5054223;28;20041;-73
2023/03/22 12:02:51;;;;;;;7.75;2.40;;;10.60;99.90;;;;;;5053991;28;20124;-73
2023/03/22 12:05:31;;;;;;;8.80;3.10;;;10.60;99.90;;;;;;5053885;28;20071;-72
2023/03/22 12:08:20;;;;;;;10.68;3.00;;;10.60;99.90;;;;;;5054087;28;20437;-73
2023/03/22 12:10:57;;;;;;;9.13;3.03;;;10.60;99.90;;;;;;5053912;28;20041;-72
2023/03/22 12:13:38;;;;;;;8.88;2.60;;;10.60;99.90;;;;;;5053861;28;20041;-72
2023/03/22 12:16:06;;;;;;;13.82;3.40;;;10.60;99.90;;;;;;5053884;28;20049;-72
2023/03/22 12:18:43;;;;;;;7.10;2.60;;;10.50;99.90;;;;;;5053682;28;20045;-72
2023/03/22 12:21:12;;;;;;;8.45;2.67;;;10.50;99.90;;;;;;5053666;28;20080;-72
2023/03/22 12:23:38;;;;;;;11.85;3.30;;;10.60;99.90;;;;;;5053631;28;20397;-72
2023/03/22 12:26:27;;;;;;;11.85;3.35;;;10.50;99.90;;;;;;5053367;28;20417;-72
2023/03/22 12:28:59;;;;;;;10.55;2.90;;;10.50;99.90;;;;;;5048715;28;20055;-73
2023/03/22 12:31:54;;;;;;;9.47;3.00;;;10.50;99.90;;;;;;5053517;28;20044;-73
2023/03/22 12:34:31;;;;;;;11.77;2.92;;;10.50;99.90;;;;;;5036167;28;20044;-73
2023/03/22 12:36:57;;;;;;;11.38;3.55;;;10.50;99.90;;;;;;5053570;28;20059;-73
2023/03/22 12:39:32;;;;;;;13.10;3.20;;;10.50;99.90;;;;;;5069999;28;20494;-73
2023/03/22 12:42:04;;;;;;;10.50;3.38;;;10.40;99.90;;;;;;5053145;28;20048;-73
2023/03/22 12:44:39;;;;;;;15.13;3.90;;;10.50;99.90;;;;;;5053021;28;20069;-73
2023/03/22 12:47:17;;;;;;;12.43;3.78;;;10.50;99.90;;;;;;5053131;28;20037;-73
2023/03/22 12:49:51;;;;;;;14.05;3.63;;;10.50;99.90;;;;;;5053285;28;20041;-73
2023/03/22 12:52:30;;;;;;;10.23;3.80;;;10.40;99.90;;;;;;5036444;28;20041;-73
2023/03/22 12:54:59;;;;;;;11.07;3.70;;;10.50;99.90;;;;;;5052779;28;20124;-72
2023/03/22 12:57:25;;;;;;;12.68;4.57;;;10.40;99.90;;;;;;5052929;28;20532;-73